sensor_id;sensor_type;location;lat;lon;timestamp;temperature;humidity
4985;DHT22;2509;49.902;8.600;2023-04-28T00:01:55;13.20;99.90
4985;DHT22;2509;49.902;8.600;2023-04-28T00:04:57;13.30;99.90
4985;DHT22;2509;49.902;8.600;2023-04-28T00:07:59;13.30;99.90
4985;DHT22;2509;49.902;8.600;2023-04-28T00:11:02;13.20;99.90
4985;DHT22;2509;49.902;8.600;2023-04-28T00:17:08;13.20;99.90
4985;DHT22;2509;49.902;8.600;2023-04-28T00:20:11;13.20;99.90
4985;DHT22;2509;49.902;8.600;2023-04-28T00:23:12;13.20;99.90
4985;DHT22;2509;49.902;8.600;2023-04-28T00:26:14;13.20;99.90
4985;DHT22;2509;49.902;8.600;2023-04-28T00:29:16;13.20;99.90
4985;DHT22;2509;49.902;8.600;2023-04-28T00:32:19;13.30;99.90
4985;DHT22;2509;49.902;8.600;2023-04-28T00:35:21;13.30;99.90
4985;DHT22;2509;49.902;8.600;2023-04-28T00:38:23;13.30;99.90
4985;DHT22;2509;49.902;8.600;2023-04-28T00:41:25;13.30;99.90
4985;DHT22;2509;49.902;8.600;2023-04-28T00:44:26;13.20;99.90
4985;DHT22;2509;49.902;8.600;2023-04-28T00:47:30;13.20;99.90
4985;DHT22;2509;49.902;8.600;2023-04-28T00:50:32;13.20;99.90
4985;DHT22;2509;49.902;8.600;2023-04-28T00:53:33;13.30;99.90
4985;DHT22;2509;49.902;8.600;2023-04-28T00:56:35;13.30;99.90
4985;DHT22;2509;49.902;8.600;2023-04-28T00:59:37;13.30;99.90
4985;DHT22;2509;49.902;8.600;2023-04-28T01:02:40;13.30;99.90
4985;DHT22;2509;49.902;8.600;2023-04-28T01:05:42;13.30;99.90
4985;DHT22;2509;49.902;8.600;2023-04-28T01:08:47;13.30;99.90
4985;DHT22;2509;49.902;8.600;2023-04-28T01:11:49;13.20;99.90
4985;DHT22;2509;49.902;8.600;2023-04-28T01:14:51;13.20;99.90
4985;DHT22;2509;49.902;8.600;2023-04-28T01:17:54;13.10;99.90
4985;DHT22;2509;49.902;8.600;2023-04-28T01:20:56;13.00;99.90
4985;DHT22;2509;49.902;8.600;2023-04-28T01:24:00;13.00;99.90
4985;DHT22;2509;49.902;8.600;2023-04-28T01:27:01;13.00;99.90
4985;DHT22;2509;49.902;8.600;2023-04-28T01:30:04;13.00;99.90
4985;DHT22;2509;49.902;8.600;2023-04-28T01:33:06;13.10;99.90
4985;DHT22;2509;49.902;8.600;2023-04-28T01:36:08;13.10;99.90
4985;DHT22;2509;49.902;8.600;2023-04-28T01:39:11;13.10;99.90
4985;DHT22;2509;49.902;8.600;2023-04-28T01:42:13;13.10;99.90
4985;DHT22;2509;49.902;8.600;2023-04-28T01:45:15;13.10;99.90
4985;DHT22;2509;49.902;8.600;2023-04-28T01:48:17;13.10;99.90
4985;DHT22;2509;49.902;8.600;2023-04-28T01:51:18;13.00;99.90
4985;DHT22;2509;49.902;8.600;2023-04-28T01:54:21;13.00;99.90
4985;DHT22;2509;49.902;8.600;2023-04-28T01:57:24;12.90;99.90
4985;DHT22;2509;49.902;8.600;2023-04-28T02:00:25;12.90;99.90
4985;DHT22;2509;49.902;8.600;2023-04-28T02:03:27;12.90;99.90
4985;DHT22;2509;49.902;8.600;2023-04-28T02:06:29;12.90;99.90
4985;DHT22;2509;49.902;8.600;2023-04-28T02:09:32;12.90;99.90
4985;DHT22;2509;49.902;8.600;2023-04-28T02:12:34;12.90;99.90
4985;DHT22;2509;49.902;8.600;2023-04-28T02:15:39;12.90;99.90
4985;DHT22;2509;49.902;8.600;2023-04-28T02:18:40;12.90;99.90
4985;DHT22;2509;49.902;8.600;2023-04-28T02:21:42;12.90;99.90
4985;DHT22;2509;49.902;8.600;2023-04-28T02:24:45;12.80;99.90
4985;DHT22;2509;49.902;8.600;2023-04-28T02:27:47;12.70;99.90
4985;DHT22;2509;49.902;8.600;2023-04-28T02:30:49;12.60;99.90
4985;DHT22;2509;49.902;8.600;2023-04-28T02:33:50;12.50;99.90
4985;DHT22;2509;49.902;8.600;2023-04-28T02:36:52;12.40;99.90
4985;DHT22;2509;49.902;8.600;2023-04-28T02:39:55;12.50;99.90
4985;DHT22;2509;49.902;8.600;2023-04-28T02:42:57;12.50;99.90
4985;DHT22;2509;49.902;8.600;2023-04-28T02:45:59;12.50;99.90
4985;DHT22;2509;49.902;8.600;2023-04-28T02:49:01;12.50;99.90
4985;DHT22;2509;49.902;8.600;2023-04-28T02:52:03;12.50;99.90
4985;DHT22;2509;49.902;8.600;2023-04-28T02:55:07;12.50;99.90
4985;DHT22;2509;49.902;8.600;2023-04-28T02:58:09;12.40;99.90
4985;DHT22;2509;49.902;8.600;2023-04-28T03:01:10;12.40;99.90
4985;DHT22;2509;49.902;8.600;2023-04-28T03:04:12;12.40;99.90
4985;DHT22;2509;49.902;8.600;2023-04-28T03:07:14;12.30;99.90
4985;DHT22;2509;49.902;8.600;2023-04-28T03:10:17;12.30;99.90
4985;DHT22;2509;49.902;8.600;2023-04-28T03:13:19;12.30;99.90
4985;DHT22;2509;49.902;8.600;2023-04-28T03:16:21;12.30;99.90
4985;DHT22;2509;49.902;8.600;2023-04-28T03:19:23;12.30;99.90
4985;DHT22;2509;49.902;8.600;2023-04-28T03:22:25;12.40;99.90
4985;DHT22;2509;49.902;8.600;2023-04-28T03:25:29;12.30;99.90
4985;DHT22;2509;49.902;8.600;2023-04-28T03:28:30;12.30;99.90
4985;DHT22;2509;49.902;8.600;2023-04-28T03:31:32;12.30;99.90
4985;DHT22;2509;49.902;8.600;2023-04-28T03:34:34;12.40;99.90
4985;DHT22;2509;49.902;8.600;2023-04-28T03:37:36;12.30;99.90
4985;DHT22;2509;49.902;8.600;2023-04-28T03:40:39;12.30;99.90
4985;DHT22;2509;49.902;8.600;2023-04-28T03:43:41;12.30;99.90
4985;DHT22;2509;49.902;8.600;2023-04-28T03:46:42;12.30;99.90
4985;DHT22;2509;49.902;8.600;2023-04-28T03:49:44;12.20;99.90
4985;DHT22;2509;49.902;8.600;2023-04-28T03:52:46;12.20;99.90
4985;DHT22;2509;49.902;8.600;2023-04-28T03:55:49;12.20;99.90
4985;DHT22;2509;49.902;8.600;2023-04-28T03:58:51;12.20;99.90
4985;DHT22;2509;49.902;8.600;2023-04-28T04:01:52;12.20;99.90
4985;DHT22;2509;49.902;8.600;2023-04-28T04:04:54;12.00;99.90
4985;DHT22;2509;49.902;8.600;2023-04-28T04:07:56;12.00;99.90
4985;DHT22;2509;49.902;8.600;2023-04-28T04:10:59;11.90;99.90
4985;DHT22;2509;49.902;8.600;2023-04-28T04:14:01;12.00;99.90
4985;DHT22;2509;49.902;8.600;2023-04-28T04:17:02;12.00;99.90
4985;DHT22;2509;49.902;8.600;2023-04-28T04:20:06;12.10;99.90
4985;DHT22;2509;49.902;8.600;2023-04-28T04:23:07;12.00;99.90
4985;DHT22;2509;49.902;8.600;2023-04-28T04:26:11;12.00;99.90
4985;DHT22;2509;49.902;8.600;2023-04-28T04:29:12;12.10;99.90
4985;DHT22;2509;49.902;8.600;2023-04-28T04:32:14;12.20;99.90
4985;DHT22;2509;49.902;8.600;2023-04-28T04:35:16;12.20;99.90
4985;DHT22;2509;49.902;8.600;2023-04-28T04:38:17;12.20;99.90
4985;DHT22;2509;49.902;8.600;2023-04-28T04:41:20;12.20;99.90
4985;DHT22;2509;49.902;8.600;2023-04-28T04:44:22;12.20;99.90
4985;DHT22;2509;49.902;8.600;2023-04-28T04:47:24;12.20;99.90
4985;DHT22;2509;49.902;8.600;2023-04-28T04:50:26;12.20;99.90
4985;DHT22;2509;49.902;8.600;2023-04-28T04:53:28;12.30;99.90
4985;DHT22;2509;49.902;8.600;2023-04-28T04:56:31;12.40;99.90
4985;DHT22;2509;49.902;8.600;2023-04-28T04:59:32;12.40;99.90
4985;DHT22;2509;49.902;8.600;2023-04-28T05:02:34;12.50;99.90
4985;DHT22;2509;49.902;8.600;2023-04-28T05:05:36;12.50;99.90
4985;DHT22;2509;49.902;8.600;2023-04-28T05:08:38;12.50;99.90
4985;DHT22;2509;49.902;8.600;2023-04-28T05:11:41;12.50;99.90
4985;DHT22;2509;49.902;8.600;2023-04-28T05:14:42;12.50;99.90
4985;DHT22;2509;49.902;8.600;2023-04-28T05:17:44;12.50;99.90
4985;DHT22;2509;49.902;8.600;2023-04-28T05:20:46;12.50;99.90
4985;DHT22;2509;49.902;8.600;2023-04-28T05:23:48;12.50;99.90
4985;DHT22;2509;49.902;8.600;2023-04-28T05:26:51;12.50;99.90
4985;DHT22;2509;49.902;8.600;2023-04-28T05:29:53;12.50;99.90
4985;DHT22;2509;49.902;8.600;2023-04-28T05:32:55;12.40;99.90
4985;DHT22;2509;49.902;8.600;2023-04-28T05:35:57;12.40;99.90
4985;DHT22;2509;49.902;8.600;2023-04-28T05:38:58;12.40;99.90
4985;DHT22;2509;49.902;8.600;2023-04-28T05:42:02;12.40;99.90
4985;DHT22;2509;49.902;8.600;2023-04-28T05:45:05;12.40;99.90
4985;DHT22;2509;49.902;8.600;2023-04-28T05:48:07;12.30;99.90
4985;DHT22;2509;49.902;8.600;2023-04-28T05:51:09;12.30;99.90
4985;DHT22;2509;49.902;8.600;2023-04-28T05:54:11;12.20;99.90
4985;DHT22;2509;49.902;8.600;2023-04-28T05:57:14;12.20;99.90
4985;DHT22;2509;49.902;8.600;2023-04-28T06:00:16;12.20;99.90
4985;DHT22;2509;49.902;8.600;2023-04-28T06:03:18;12.20;99.90
4985;DHT22;2509;49.902;8.600;2023-04-28T06:06:20;12.20;99.90
4985;DHT22;2509;49.902;8.600;2023-04-28T06:09:22;12.20;99.90
4985;DHT22;2509;49.902;8.600;2023-04-28T06:12:25;12.00;99.90
4985;DHT22;2509;49.902;8.600;2023-04-28T06:15:26;12.00;99.90
4985;DHT22;2509;49.902;8.600;2023-04-28T06:18:28;12.00;99.90
4985;DHT22;2509;49.902;8.600;2023-04-28T06:21:31;11.90;99.90
4985;DHT22;2509;49.902;8.600;2023-04-28T06:24:33;11.90;99.90
4985;DHT22;2509;49.902;8.600;2023-04-28T06:27:36;11.90;99.90
4985;DHT22;2509;49.902;8.600;2023-04-28T06:30:39;11.90;99.90
4985;DHT22;2509;49.902;8.600;2023-04-28T06:33:40;12.00;99.90
4985;DHT22;2509;49.902;8.600;2023-04-28T06:36:42;12.00;99.90
4985;DHT22;2509;49.902;8.600;2023-04-28T06:39:44;12.00;99.90
4985;DHT22;2509;49.902;8.600;2023-04-28T06:42:47;12.00;99.90
4985;DHT22;2509;49.902;8.600;2023-04-28T06:45:49;11.90;99.90
4985;DHT22;2509;49.902;8.600;2023-04-28T06:48:50;11.90;99.90
4985;DHT22;2509;49.902;8.600;2023-04-28T06:51:52;11.80;99.90
4985;DHT22;2509;49.902;8.600;2023-04-28T06:54:54;11.80;99.90
4985;DHT22;2509;49.902;8.600;2023-04-28T06:57:57;11.70;99.90
4985;DHT22;2509;49.902;8.600;2023-04-28T07:00:59;11.80;99.90
4985;DHT22;2509;49.902;8.600;2023-04-28T07:04:03;11.80;99.90
4985;DHT22;2509;49.902;8.600;2023-04-28T07:07:05;11.90;99.90
4985;DHT22;2509;49.902;8.600;2023-04-28T07:10:08;11.90;99.90
4985;DHT22;2509;49.902;8.600;2023-04-28T07:13:12;11.90;99.90
4985;DHT22;2509;49.902;8.600;2023-04-28T07:16:14;12.00;99.90
4985;DHT22;2509;49.902;8.600;2023-04-28T07:19:15;12.00;99.90
4985;DHT22;2509;49.902;8.600;2023-04-28T07:22:17;12.00;99.90
4985;DHT22;2509;49.902;8.600;2023-04-28T07:25:19;12.00;99.90
4985;DHT22;2509;49.902;8.600;2023-04-28T07:28:22;12.00;99.90
4985;DHT22;2509;49.902;8.600;2023-04-28T07:31:24;11.90;99.90
4985;DHT22;2509;49.902;8.600;2023-04-28T07:34:26;11.90;99.90
4985;DHT22;2509;49.902;8.600;2023-04-28T07:37:28;11.80;99.90
4985;DHT22;2509;49.902;8.600;2023-04-28T07:40:30;11.90;99.90
4985;DHT22;2509;49.902;8.600;2023-04-28T07:43:33;12.00;99.90
4985;DHT22;2509;49.902;8.600;2023-04-28T07:46:35;11.90;99.90
4985;DHT22;2509;49.902;8.600;2023-04-28T07:49:37;12.00;99.90
4985;DHT22;2509;49.902;8.600;2023-04-28T07:52:38;12.00;99.90
4985;DHT22;2509;49.902;8.600;2023-04-28T07:55:40;12.10;99.90
4985;DHT22;2509;49.902;8.600;2023-04-28T07:58:45;12.10;99.90
4985;DHT22;2509;49.902;8.600;2023-04-28T08:01:47;12.10;99.90
4985;DHT22;2509;49.902;8.600;2023-04-28T08:04:48;12.20;99.90
4985;DHT22;2509;49.902;8.600;2023-04-28T08:07:50;12.20;99.90
4985;DHT22;2509;49.902;8.600;2023-04-28T08:10:52;12.20;99.90
4985;DHT22;2509;49.902;8.600;2023-04-28T08:13:55;12.20;99.90
4985;DHT22;2509;49.902;8.600;2023-04-28T08:17:01;12.30;99.90
4985;DHT22;2509;49.902;8.600;2023-04-28T08:20:04;12.40;99.90
4985;DHT22;2509;49.902;8.600;2023-04-28T08:23:06;12.40;99.90
4985;DHT22;2509;49.902;8.600;2023-04-28T08:26:08;12.40;99.90
4985;DHT22;2509;49.902;8.600;2023-04-28T08:29:11;12.40;99.90
4985;DHT22;2509;49.902;8.600;2023-04-28T08:32:13;12.40;99.90
4985;DHT22;2509;49.902;8.600;2023-04-28T08:35:15;12.50;99.90
4985;DHT22;2509;49.902;8.600;2023-04-28T08:38:17;12.60;99.90
4985;DHT22;2509;49.902;8.600;2023-04-28T08:41:18;12.60;99.90
4985;DHT22;2509;49.902;8.600;2023-04-28T08:44:22;12.70;99.90
4985;DHT22;2509;49.902;8.600;2023-04-28T08:47:31;12.80;99.90
4985;DHT22;2509;49.902;8.600;2023-04-28T08:50:34;12.90;99.90
4985;DHT22;2509;49.902;8.600;2023-04-28T08:53:37;12.90;99.90
4985;DHT22;2509;49.902;8.600;2023-04-28T08:56:40;13.00;99.90
4985;DHT22;2509;49.902;8.600;2023-04-28T08:59:46;13.00;99.90
4985;DHT22;2509;49.902;8.600;2023-04-28T09:02:48;13.10;99.90
4985;DHT22;2509;49.902;8.600;2023-04-28T09:05:50;13.10;99.90
4985;DHT22;2509;49.902;8.600;2023-04-28T09:08:52;13.10;99.90
4985;DHT22;2509;49.902;8.600;2023-04-28T09:11:54;13.30;99.90
4985;DHT22;2509;49.902;8.600;2023-04-28T09:14:59;13.40;99.90
4985;DHT22;2509;49.902;8.600;2023-04-28T09:18:13;13.50;99.90
4985;DHT22;2509;49.902;8.600;2023-04-28T09:21:15;13.50;99.90
4985;DHT22;2509;49.902;8.600;2023-04-28T09:24:27;13.50;99.90
4985;DHT22;2509;49.902;8.600;2023-04-28T09:27:29;13.50;99.90
4985;DHT22;2509;49.902;8.600;2023-04-28T09:30:39;13.50;99.90
4985;DHT22;2509;49.902;8.600;2023-04-28T09:33:55;13.50;99.90
4985;DHT22;2509;49.902;8.600;2023-04-28T09:36:57;13.60;99.90
4985;DHT22;2509;49.902;8.600;2023-04-28T09:40:04;13.60;99.90
4985;DHT22;2509;49.902;8.600;2023-04-28T09:43:22;13.60;99.90
4985;DHT22;2509;49.902;8.600;2023-04-28T09:46:28;13.60;99.90
4985;DHT22;2509;49.902;8.600;2023-04-28T09:49:30;13.60;99.90
4985;DHT22;2509;49.902;8.600;2023-04-28T09:52:32;13.70;99.90
4985;DHT22;2509;49.902;8.600;2023-04-28T09:55:35;13.70;99.90
4985;DHT22;2509;49.902;8.600;2023-04-28T09:58:40;13.90;99.90
4985;DHT22;2509;49.902;8.600;2023-04-28T10:01:45;14.00;99.90
4985;DHT22;2509;49.902;8.600;2023-04-28T10:04:48;14.10;99.90
4985;DHT22;2509;49.902;8.600;2023-04-28T10:07:50;14.20;99.90
4985;DHT22;2509;49.902;8.600;2023-04-28T10:10:55;14.20;99.90
4985;DHT22;2509;49.902;8.600;2023-04-28T10:13:57;14.30;99.90
4985;DHT22;2509;49.902;8.600;2023-04-28T10:17:00;14.50;99.90
4985;DHT22;2509;49.902;8.600;2023-04-28T10:20:03;14.60;99.90
4985;DHT22;2509;49.902;8.600;2023-04-28T10:23:23;14.70;99.90
4985;DHT22;2509;49.902;8.600;2023-04-28T10:29:51;14.80;99.90
4985;DHT22;2509;49.902;8.600;2023-04-28T10:33:24;14.90;99.90
4985;DHT22;2509;49.902;8.600;2023-04-28T10:36:47;14.80;99.90
4985;DHT22;2509;49.902;8.600;2023-04-28T10:40:29;14.80;99.90
4985;DHT22;2509;49.902;8.600;2023-04-28T10:43:36;14.90;99.90
4985;DHT22;2509;49.902;8.600;2023-04-28T10:46:59;15.00;99.90
4985;DHT22;2509;49.902;8.600;2023-04-28T10:50:07;15.10;99.90
4985;DHT22;2509;49.902;8.600;2023-04-28T10:53:09;15.10;99.90
4985;DHT22;2509;49.902;8.600;2023-04-28T10:56:11;15.20;99.90
4985;DHT22;2509;49.902;8.600;2023-04-28T10:59:26;15.20;99.90
4985;DHT22;2509;49.902;8.600;2023-04-28T11:02:41;15.30;99.90
4985;DHT22;2509;49.902;8.600;2023-04-28T11:09:47;15.40;99.90
4985;DHT22;2509;49.902;8.600;2023-04-28T11:13:25;15.40;99.90
4985;DHT22;2509;49.902;8.600;2023-04-28T11:16:27;15.40;99.90
4985;DHT22;2509;49.902;8.600;2023-04-28T11:19:30;15.40;99.90
4985;DHT22;2509;49.902;8.600;2023-04-28T11:22:32;15.50;99.90
4985;DHT22;2509;49.902;8.600;2023-04-28T11:25:53;15.50;99.90
4985;DHT22;2509;49.902;8.600;2023-04-28T11:28:56;15.60;99.90
4985;DHT22;2509;49.902;8.600;2023-04-28T11:31:59;15.60;99.90
4985;DHT22;2509;49.902;8.600;2023-04-28T11:35:01;15.60;99.90
4985;DHT22;2509;49.902;8.600;2023-04-28T11:38:03;15.50;99.90
4985;DHT22;2509;49.902;8.600;2023-04-28T11:41:07;15.50;99.90
4985;DHT22;2509;49.902;8.600;2023-04-28T11:44:09;15.40;99.90
4985;DHT22;2509;49.902;8.600;2023-04-28T11:47:11;15.30;99.90
4985;DHT22;2509;49.902;8.600;2023-04-28T11:50:14;15.40;99.90
4985;DHT22;2509;49.902;8.600;2023-04-28T11:53:16;15.40;99.90
4985;DHT22;2509;49.902;8.600;2023-04-28T11:56:19;15.20;99.90
4985;DHT22;2509;49.902;8.600;2023-04-28T11:59:23;15.10;99.90
4985;DHT22;2509;49.902;8.600;2023-04-28T12:02:26;15.10;99.90
4985;DHT22;2509;49.902;8.600;2023-04-28T12:05:31;15.10;99.90
4985;DHT22;2509;49.902;8.600;2023-04-28T12:08:33;15.10;99.90
4985;DHT22;2509;49.902;8.600;2023-04-28T12:11:36;15.20;99.90
4985;DHT22;2509;49.902;8.600;2023-04-28T12:17:42;15.30;99.90
4985;DHT22;2509;49.902;8.600;2023-04-28T12:20:45;15.40;99.90
4985;DHT22;2509;49.902;8.600;2023-04-28T12:23:46;15.50;99.90
4985;DHT22;2509;49.902;8.600;2023-04-28T12:26:49;15.70;99.90
4985;DHT22;2509;49.902;8.600;2023-04-28T12:29:51;15.90;99.90
4985;DHT22;2509;49.902;8.600;2023-04-28T12:32:54;16.40;99.90
4985;DHT22;2509;49.902;8.600;2023-04-28T12:36:00;16.60;99.90
4985;DHT22;2509;49.902;8.600;2023-04-28T12:39:01;16.90;99.90
4985;DHT22;2509;49.902;8.600;2023-04-28T12:42:05;17.60;99.90
4985;DHT22;2509;49.902;8.600;2023-04-28T12:45:07;18.20;99.90
4985;DHT22;2509;49.902;8.600;2023-04-28T12:48:09;18.90;99.90
4985;DHT22;2509;49.902;8.600;2023-04-28T12:51:11;19.80;99.90
4985;DHT22;2509;49.902;8.600;2023-04-28T12:54:13;20.60;99.90
4985;DHT22;2509;49.902;8.600;2023-04-28T12:57:17;21.10;99.90
4985;DHT22;2509;49.902;8.600;2023-04-28T13:00:19;21.00;99.90
4985;DHT22;2509;49.902;8.600;2023-04-28T13:03:22;20.30;99.90
4985;DHT22;2509;49.902;8.600;2023-04-28T13:06:25;19.50;99.90
4985;DHT22;2509;49.902;8.600;2023-04-28T13:09:28;19.00;99.90
4985;DHT22;2509;49.902;8.600;2023-04-28T13:12:31;18.50;99.90
4985;DHT22;2509;49.902;8.600;2023-04-28T13:15:33;18.30;99.90
4985;DHT22;2509;49.902;8.600;2023-04-28T13:18:36;18.30;99.90
4985;DHT22;2509;49.902;8.600;2023-04-28T13:21:38;18.50;99.90
4985;DHT22;2509;49.902;8.600;2023-04-28T13:24:41;18.50;99.90
4985;DHT22;2509;49.902;8.600;2023-04-28T13:27:44;18.40;99.90
4985;DHT22;2509;49.902;8.600;2023-04-28T13:30:46;18.20;99.90
4985;DHT22;2509;49.902;8.600;2023-04-28T13:33:47;18.10;99.90
4985;DHT22;2509;49.902;8.600;2023-04-28T13:36:51;17.90;99.90
4985;DHT22;2509;49.902;8.600;2023-04-28T13:39:53;18.10;99.90
4985;DHT22;2509;49.902;8.600;2023-04-28T13:42:57;18.50;99.90
4985;DHT22;2509;49.902;8.600;2023-04-28T13:45:58;18.80;99.90
4985;DHT22;2509;49.902;8.600;2023-04-28T13:49:00;18.60;99.90
4985;DHT22;2509;49.902;8.600;2023-04-28T13:52:03;18.20;99.90
4985;DHT22;2509;49.902;8.600;2023-04-28T13:55:05;18.10;99.90
4985;DHT22;2509;49.902;8.600;2023-04-28T13:58:08;18.10;99.90
4985;DHT22;2509;49.902;8.600;2023-04-28T14:01:09;18.10;99.90
4985;DHT22;2509;49.902;8.600;2023-04-28T14:04:11;18.40;99.90
4985;DHT22;2509;49.902;8.600;2023-04-28T14:07:13;18.60;99.90
4985;DHT22;2509;49.902;8.600;2023-04-28T14:10:15;18.60;99.90
4985;DHT22;2509;49.902;8.600;2023-04-28T14:13:18;18.50;99.90
4985;DHT22;2509;49.902;8.600;2023-04-28T14:16:20;19.20;99.90
4985;DHT22;2509;49.902;8.600;2023-04-28T14:19:22;20.90;99.90
4985;DHT22;2509;49.902;8.600;2023-04-28T14:22:26;21.10;99.90
4985;DHT22;2509;49.902;8.600;2023-04-28T14:25:28;21.10;99.90
4985;DHT22;2509;49.902;8.600;2023-04-28T14:28:32;21.80;99.90
4985;DHT22;2509;49.902;8.600;2023-04-28T14:31:35;22.00;99.90
4985;DHT22;2509;49.902;8.600;2023-04-28T14:34:37;21.50;99.90
4985;DHT22;2509;49.902;8.600;2023-04-28T14:37:39;21.00;99.90
4985;DHT22;2509;49.902;8.600;2023-04-28T14:40:41;20.70;99.90
4985;DHT22;2509;49.902;8.600;2023-04-28T14:43:44;20.30;99.90
4985;DHT22;2509;49.902;8.600;2023-04-28T14:46:46;20.40;99.90
4985;DHT22;2509;49.902;8.600;2023-04-28T14:49:48;20.30;99.90
4985;DHT22;2509;49.902;8.600;2023-04-28T14:52:50;20.60;99.90
4985;DHT22;2509;49.902;8.600;2023-04-28T14:55:51;20.80;99.90
4985;DHT22;2509;49.902;8.600;2023-04-28T14:58:54;20.50;99.90
4985;DHT22;2509;49.902;8.600;2023-04-28T15:01:56;20.10;99.90
4985;DHT22;2509;49.902;8.600;2023-04-28T15:04:58;20.00;99.90
4985;DHT22;2509;49.902;8.600;2023-04-28T15:08:00;20.70;99.90
4985;DHT22;2509;49.902;8.600;2023-04-28T15:11:01;20.30;99.90
4985;DHT22;2509;49.902;8.600;2023-04-28T15:14:04;19.90;99.90
4985;DHT22;2509;49.902;8.600;2023-04-28T15:17:07;19.60;99.90
4985;DHT22;2509;49.902;8.600;2023-04-28T15:20:09;19.50;99.90
4985;DHT22;2509;49.902;8.600;2023-04-28T15:23:11;19.60;99.90
4985;DHT22;2509;49.902;8.600;2023-04-28T15:26:13;19.50;99.90
4985;DHT22;2509;49.902;8.600;2023-04-28T15:29:16;19.30;99.90
4985;DHT22;2509;49.902;8.600;2023-04-28T15:32:18;19.70;99.90
4985;DHT22;2509;49.902;8.600;2023-04-28T15:35:20;20.00;99.90
4985;DHT22;2509;49.902;8.600;2023-04-28T15:38:22;20.20;99.90
4985;DHT22;2509;49.902;8.600;2023-04-28T15:41:23;19.90;99.90
4985;DHT22;2509;49.902;8.600;2023-04-28T15:44:26;19.60;99.90
4985;DHT22;2509;49.902;8.600;2023-04-28T15:47:28;19.40;99.90
4985;DHT22;2509;49.902;8.600;2023-04-28T15:50:30;19.40;99.90
4985;DHT22;2509;49.902;8.600;2023-04-28T15:53:32;19.40;99.90
4985;DHT22;2509;49.902;8.600;2023-04-28T15:56:34;19.50;99.90
4985;DHT22;2509;49.902;8.600;2023-04-28T15:59:37;19.40;99.90
4985;DHT22;2509;49.902;8.600;2023-04-28T16:02:41;19.00;99.90
4985;DHT22;2509;49.902;8.600;2023-04-28T16:05:43;18.80;99.90
4985;DHT22;2509;49.902;8.600;2023-04-28T16:08:45;18.80;99.90
4985;DHT22;2509;49.902;8.600;2023-04-28T16:11:46;18.80;99.90
4985;DHT22;2509;49.902;8.600;2023-04-28T16:14:49;19.00;99.90
4985;DHT22;2509;49.902;8.600;2023-04-28T16:17:52;19.00;99.90
4985;DHT22;2509;49.902;8.600;2023-04-28T16:20:56;18.80;99.90
4985;DHT22;2509;49.902;8.600;2023-04-28T16:23:57;18.70;99.90
4985;DHT22;2509;49.902;8.600;2023-04-28T16:27:01;18.60;99.90
4985;DHT22;2509;49.902;8.600;2023-04-28T16:30:05;18.70;99.90
4985;DHT22;2509;49.902;8.600;2023-04-28T16:33:07;18.70;99.90
4985;DHT22;2509;49.902;8.600;2023-04-28T16:36:09;18.60;99.90
4985;DHT22;2509;49.902;8.600;2023-04-28T16:39:11;18.50;99.90
4985;DHT22;2509;49.902;8.600;2023-04-28T16:42:13;18.40;99.90
4985;DHT22;2509;49.902;8.600;2023-04-28T16:45:16;18.40;99.90
4985;DHT22;2509;49.902;8.600;2023-04-28T16:48:18;18.30;99.90
4985;DHT22;2509;49.902;8.600;2023-04-28T16:51:20;18.30;99.90
4985;DHT22;2509;49.902;8.600;2023-04-28T16:54:23;18.20;99.90
4985;DHT22;2509;49.902;8.600;2023-04-28T16:57:24;18.00;99.90
4985;DHT22;2509;49.902;8.600;2023-04-28T17:00:27;18.00;99.90
4985;DHT22;2509;49.902;8.600;2023-04-28T17:03:30;17.80;99.90
4985;DHT22;2509;49.902;8.600;2023-04-28T17:06:31;17.50;99.90
4985;DHT22;2509;49.902;8.600;2023-04-28T17:09:33;17.20;99.90
4985;DHT22;2509;49.902;8.600;2023-04-28T17:12:35;16.90;99.90
4985;DHT22;2509;49.902;8.600;2023-04-28T17:15:38;16.60;99.90
4985;DHT22;2509;49.902;8.600;2023-04-28T17:18:40;16.40;99.90
4985;DHT22;2509;49.902;8.600;2023-04-28T17:21:42;16.30;99.90
4985;DHT22;2509;49.902;8.600;2023-04-28T17:24:45;16.20;99.90
4985;DHT22;2509;49.902;8.600;2023-04-28T17:27:47;16.20;99.90
4985;DHT22;2509;49.902;8.600;2023-04-28T17:30:50;16.20;99.90
4985;DHT22;2509;49.902;8.600;2023-04-28T17:33:56;16.20;99.90
4985;DHT22;2509;49.902;8.600;2023-04-28T17:36:58;16.10;99.90
4985;DHT22;2509;49.902;8.600;2023-04-28T17:39:59;15.90;99.90
4985;DHT22;2509;49.902;8.600;2023-04-28T17:43:01;15.80;99.90
4985;DHT22;2509;49.902;8.600;2023-04-28T17:46:04;15.70;99.90
4985;DHT22;2509;49.902;8.600;2023-04-28T17:49:06;15.60;99.90
4985;DHT22;2509;49.902;8.600;2023-04-28T17:52:08;15.50;99.90
4985;DHT22;2509;49.902;8.600;2023-04-28T17:55:10;15.50;99.90
4985;DHT22;2509;49.902;8.600;2023-04-28T17:58:12;15.40;99.90
4985;DHT22;2509;49.902;8.600;2023-04-28T18:01:15;15.20;99.90
4985;DHT22;2509;49.902;8.600;2023-04-28T18:04:17;15.00;99.90
4985;DHT22;2509;49.902;8.600;2023-04-28T18:07:19;14.90;99.90
4985;DHT22;2509;49.902;8.600;2023-04-28T18:10:20;14.80;99.90
4985;DHT22;2509;49.902;8.600;2023-04-28T18:13:24;14.80;99.90
4985;DHT22;2509;49.902;8.600;2023-04-28T18:16:27;14.80;99.90
4985;DHT22;2509;49.902;8.600;2023-04-28T18:19:29;14.80;99.90
4985;DHT22;2509;49.902;8.600;2023-04-28T18:22:31;14.80;99.90
4985;DHT22;2509;49.902;8.600;2023-04-28T18:25:33;14.80;99.90
4985;DHT22;2509;49.902;8.600;2023-04-28T18:28:35;14.90;99.90
4985;DHT22;2509;49.902;8.600;2023-04-28T18:31:38;14.80;99.90
4985;DHT22;2509;49.902;8.600;2023-04-28T18:34:41;14.70;99.90
4985;DHT22;2509;49.902;8.600;2023-04-28T18:37:44;14.70;99.90
4985;DHT22;2509;49.902;8.600;2023-04-28T18:40:46;14.70;99.90
4985;DHT22;2509;49.902;8.600;2023-04-28T18:43:48;14.70;99.90
4985;DHT22;2509;49.902;8.600;2023-04-28T18:46:51;14.60;99.90
4985;DHT22;2509;49.902;8.600;2023-04-28T18:49:52;14.50;99.90
4985;DHT22;2509;49.902;8.600;2023-04-28T18:52:54;14.50;99.90
4985;DHT22;2509;49.902;8.600;2023-04-28T18:55:56;14.40;99.90
4985;DHT22;2509;49.902;8.600;2023-04-28T18:58:58;14.40;99.90
4985;DHT22;2509;49.902;8.600;2023-04-28T19:02:02;14.30;99.90
4985;DHT22;2509;49.902;8.600;2023-04-28T19:05:05;14.30;99.90
4985;DHT22;2509;49.902;8.600;2023-04-28T19:08:07;14.30;99.90
4985;DHT22;2509;49.902;8.600;2023-04-28T19:11:09;14.20;99.90
4985;DHT22;2509;49.902;8.600;2023-04-28T19:14:11;14.30;99.90
4985;DHT22;2509;49.902;8.600;2023-04-28T19:17:14;14.30;99.90
4985;DHT22;2509;49.902;8.600;2023-04-28T19:20:16;14.30;99.90
4985;DHT22;2509;49.902;8.600;2023-04-28T19:23:18;14.30;99.90
4985;DHT22;2509;49.902;8.600;2023-04-28T19:26:20;14.20;99.90
4985;DHT22;2509;49.902;8.600;2023-04-28T19:29:22;14.20;99.90
4985;DHT22;2509;49.902;8.600;2023-04-28T19:32:25;14.10;99.90
4985;DHT22;2509;49.902;8.600;2023-04-28T19:35:26;14.10;99.90
4985;DHT22;2509;49.902;8.600;2023-04-28T19:38:28;14.00;99.90
4985;DHT22;2509;49.902;8.600;2023-04-28T19:41:30;14.00;99.90
4985;DHT22;2509;49.902;8.600;2023-04-28T19:44:32;14.00;99.90
4985;DHT22;2509;49.902;8.600;2023-04-28T19:47:35;14.00;99.90
4985;DHT22;2509;49.902;8.600;2023-04-28T19:50:37;14.00;99.90
4985;DHT22;2509;49.902;8.600;2023-04-28T19:53:39;14.00;99.90
4985;DHT22;2509;49.902;8.600;2023-04-28T19:56:41;14.00;99.90
4985;DHT22;2509;49.902;8.600;2023-04-28T19:59:42;14.00;99.90
4985;DHT22;2509;49.902;8.600;2023-04-28T20:02:45;14.10;99.90
4985;DHT22;2509;49.902;8.600;2023-04-28T20:05:47;14.10;99.90
4985;DHT22;2509;49.902;8.600;2023-04-28T20:08:49;14.10;99.90